West Valley City, UT

8:42 PM MDT on March 27, 2017 (GMT -0600)
West Valley | | Change Station

Elev 4314 ft 40.69 °N, 112.01 °W | Updated 2 minutes ago

Overcast
Overcast
43.8 °F
Feels Like 44 °F
N
1.0
Wind Variable Wind from NNW
Gusts 11.0 mph

Today
High -- | Low -- °F
--% Chance of Precip.
Yesterday
High -- | Low -- °F
Precip. -- in
Pressure 29.96 in
Visibility 10.0 miles
Clouds Scattered Clouds 3400 ft
Mostly Cloudy 4900 ft
Overcast 6000 ft
Windchill 44 °F
Dew Point 39 °F
Humidity 83%
Rainfall 0.17 in
Snow Depth Not available.
7:19 AM 7:47 PM
Waning Crescent, 0% visible
METAR KU42 280235Z AUTO 33011KT 10SM SCT034 BKN049 OVC060 07/07 A2996 RMK AO1 T00730073
Pressure 29.96 in
Visibility 10.0 miles
Clouds Scattered Clouds 3400 ft
Mostly Cloudy 4900 ft
Overcast 6000 ft
Windchill 44 °F
Dew Point 39 °F
Humidity 83%
Rainfall 0.17 in
Snow Depth Not available.
7:19 AM 7:47 PM
Waning Crescent, 0% visible
METAR KU42 280235Z AUTO 33011KT 10SM SCT034 BKN049 OVC060 07/07 A2996 RMK AO1 T00730073

Get Severe Weather Alerts

Thanks for signing up!

Be on the lookout for a verification email in your inbox.

You'll start receiving the daily forecast at 8 AM.

×

10-Day Weather Forecast

Almanac

Astronomy

Mar. 27, 2017 Rise Set
Actual Time
Civil Twilight
Nautical Twilight
Astronomical Twilight
Moon
Length of Visible Light
Length of Day
Tomorrow will be .
, % of the Moon is Illuminated

Today's Extremes

State Highs State Lows

Community

WunderPhotos

Upload Photos

1,962,540 photos uploaded!

WunderBlog® & News

Nearby

Air Quality

  Air Quality AQ Index Pollutant
Not available.

Snow Depth

Station Depth Elevation

Earthquake Activity

City Distance Mag. Time & Date
Minimum magnitude displayed is 2.5.

Earthquake Activity

City Distance Mag. Time & Date
Minimum magnitude displayed is 2.5.

Coastal Water Temperatures

Place Temperature

Stations

Nearby Weather Stations

Station Location Temp. Windchill Dew Point Humidity Wind Precip. Elev Updated Type
                   

Watches & Warnings

There are currently no watches in effect.